Domov               UVHVVR             MKGP            O straneh              
ZDRAVSTVENO VARSTVO RASTLIN
  MREŽA AGROMET. POSTAJ
 ► PROGNOSTIČNA OBVESTILA
AGROMETEOROLOŠKI PODATKI -
ARSO
OBVLADOVANJE TVEGANJ ZARADI
NEUGODNIH VREMENSKIH RAZMER
  ► NARAVNE NESREČE
  ► SUŠA/MOČA
  ► NAMAKANJE
  ► ŽLED (gozdarstvo)
KARTOGRAFSKI PRIKAZI
SPLETNE POVEZAVE
PROJEKTI IN PUBLIKACIJE

AGROMETEOROLOŠKA MREŽA: VREMENSKE POSTAJE IN FENOLOŠKA OPAZOVANJA

Pregled podatkov za lokacijo Litmerk, meteorološka postaja 27388

Pregled senzorjev na lokaciji

ID Ime Zadnja
vrednost
Datum
zadnje
spremembe
Tip
senzorja
953 Padavine (mm) 0 mm 20.1.2018 11:30 Generic 0.2 mm
1457 Omočenost lista (U) 0 U 20.1.2018 11:30 A730WET
1458 Temperatura 2 m (°C) 3,61 °C 20.1.2018 11:30 Generic -40 - +60 °C
1459 Relativna vlaga 2 m (% RH) 70,35 % RH 20.1.2018 11:30 Generic 0 - 100 %

Pregled podatkov zadnjih 24 ur

Zap.
št.
Datum in čas Litmerk
Omočenost
lista
Padavine Relativna
vlaga
2
m
Temperatura
2
m
0 20.1.2018 11:30 0 0 70,35 3,61
1 20.1.2018 11:00 0 0 77,66 3,13
2 20.1.2018 10:30 0 0 75,48 3
3 20.1.2018 10:00 0 0 77,46 2,59
4 20.1.2018 09:30 0 0 79,15 1,86
5 20.1.2018 09:00 3 0 83,81 1,07
6 20.1.2018 08:30 10 0 88,01 0,73
7 20.1.2018 08:00 10 0 90,16 0,56
8 20.1.2018 07:30 10 0 91,58 0,68
9 20.1.2018 07:00 10 0 90,09 0,61
10 20.1.2018 06:30 10 0 95,97 0,37
11 20.1.2018 06:00 10 0 95,92 0,61
12 20.1.2018 05:30 10 0 94,82 0,49
13 20.1.2018 05:00 10 0 98,34 0,05
14 20.1.2018 04:30 10 0 96,51 0,29
15 20.1.2018 04:00 10 0 97,34 0,51
16 20.1.2018 03:30 10 0 97,88 0,49
17 20.1.2018 03:00 10 0 98,56 0,42
18 20.1.2018 02:30 10 0 97,78 0,63
19 20.1.2018 02:00 10 0 99,9 0,49
20 20.1.2018 01:30 10 0 99,9 0,73
21 20.1.2018 01:00 10 0 98,32 1,05
22 20.1.2018 00:30 10 0 98,75 1
23 20.1.2018 00:00 9 0 99,93 1,05
24 19.1.2018 23:30 9 0 99,93 1,34
25 19.1.2018 23:00 8 0 98,75 1,64
26 19.1.2018 22:30 3 0 96,39 2,05
27 19.1.2018 22:00 1 0 92,89 2,34
28 19.1.2018 21:30 0 0 90,21 2,59
29 19.1.2018 21:00 0 0 87,67 2,88
30 19.1.2018 20:30 0 0 84,52 3,44
31 19.1.2018 20:00 0 0 80,2 3,66
32 19.1.2018 19:30 0 0 81,98 3,71
33 19.1.2018 19:00 0 0 83,3 3,76
34 19.1.2018 18:30 0 0 81,39 3,74
35 19.1.2018 18:00 0 0 88,62 3,49
36 19.1.2018 17:30 0 0 83,32 3,96
37 19.1.2018 17:00 0 0 89,69 3,96
38 19.1.2018 16:30 0 0 74,6 5,2
39 19.1.2018 16:00 0 0 72,11 4,69
40 19.1.2018 15:30 0 0 82 4,25
41 19.1.2018 15:00 1 0,2 82,95 4,2
42 19.1.2018 14:30 10 0 90,45 3,37
43 19.1.2018 14:00 9 0 92,33 3,3
44 19.1.2018 13:30 10 0,6 87,55 3
45 19.1.2018 13:00 10 0 78,12 3,59
46 19.1.2018 12:30 5 0 74,65 4,05
© 2011 Ministrstvo za kmetijstvo, gozdarstvo in prehrano. Vse pravice pridržane.